Time;durP1;ratioP1;P1;durP2;ratioP2;P2;SDS_P1;SDS_P2;PMS_P1;PMS_P2;Temp;Humidity;BMP_temperature;BMP_pressure;BME280_temperature;BME280_humidity;BME280_pressure;Samples;Min_cycle;Max_cycle;Signal;HPM_P1;HPM_P2
2022/03/27 00:01:34;;;;;;;10.15;6.22;;;;;;;17.26;100.00;103101.44;5076910;28;20083;-48
2022/03/27 00:03:59;;;;;;;15.45;7.10;;;;;;;17.24;100.00;103098.06;5081865;28;20032;-50
2022/03/27 00:06:25;;;;;;;15.77;7.82;;;;;;;17.12;100.00;103088.75;5087966;28;20033;-50
2022/03/27 00:08:50;;;;;;;10.90;6.83;;;;;;;17.14;100.00;103086.69;5074753;28;20063;-50
2022/03/27 00:11:26;;;;;;;12.18;5.72;;;;;;;17.10;100.00;103090.81;5075290;28;20028;-47
2022/03/27 00:13:52;;;;;;;11.65;5.93;;;;;;;17.12;100.00;103094.16;5075655;28;20032;-48
2022/03/27 00:16:18;;;;;;;11.68;6.80;;;;;;;17.10;100.00;103093.50;5074775;28;20112;-51
2022/03/27 00:18:44;;;;;;;14.55;6.93;;;;;;;16.88;100.00;103098.75;5073776;28;20058;-47
2022/03/27 00:21:10;;;;;;;15.63;7.03;;;;;;;16.87;100.00;103100.59;5073783;28;20078;-51
2022/03/27 00:23:36;;;;;;;10.85;7.05;;;;;;;17.20;100.00;103086.81;5075715;28;20358;-54
2022/03/27 00:26:02;;;;;;;9.30;5.20;;;;;;;17.29;100.00;103084.84;5090191;28;20036;-51
2022/03/27 00:28:32;;;;;;;7.80;4.93;;;;;;;17.09;100.00;103091.84;5081391;28;20044;-49
2022/03/27 00:31:04;;;;;;;10.05;5.85;;;;;;;17.20;100.00;103088.66;5074810;28;20024;-50
2022/03/27 00:33:31;;;;;;;9.85;6.10;;;;;;;17.14;100.00;103086.69;5072115;28;20052;-52
2022/03/27 00:35:58;;;;;;;9.65;5.35;;;;;;;16.99;100.00;103087.50;5073224;28;20062;-52
2022/03/27 00:38:25;;;;;;;8.57;4.90;;;;;;;17.25;100.00;103088.13;5073973;28;20041;-50
2022/03/27 00:40:52;;;;;;;12.73;6.53;;;;;;;17.27;100.00;103086.06;5074777;28;20037;-51
2022/03/27 00:43:22;;;;;;;8.38;5.18;;;;;;;17.32;100.00;103089.91;5072281;28;20051;-48
2022/03/27 00:45:49;;;;;;;9.48;5.57;;;;;;;17.10;100.00;103091.63;5077445;28;20036;-52
2022/03/27 00:48:17;;;;;;;10.40;5.43;;;;;;;17.36;100.00;103090.34;5088066;28;20091;-48
2022/03/27 00:50:43;;;;;;;10.95;5.88;;;;;;;17.43;100.00;103091.31;5084031;28;20101;-49
2022/03/27 00:53:11;;;;;;;9.03;4.93;;;;;;;17.46;100.00;103080.09;5080436;28;20041;-54
2022/03/27 00:55:37;;;;;;;8.23;5.30;;;;;;;17.62;100.00;103092.59;5070875;28;20055;-51
2022/03/27 00:58:03;;;;;;;10.63;5.80;;;;;;;17.41;100.00;103081.69;5071701;28;20059;-49
2022/03/27 01:00:37;;;;;;;11.43;5.90;;;;;;;17.42;100.00;103088.78;5072680;28;20113;-51
2022/03/27 01:03:04;;;;;;;12.15;6.93;;;;;;;17.59;100.00;103090.25;5069752;28;20036;-54
2022/03/27 01:05:30;;;;;;;10.40;6.03;;;;;;;17.57;100.00;103086.91;5073292;28;20033;-49
2022/03/27 01:07:56;;;;;;;9.35;5.90;;;;;;;17.47;100.00;103086.34;5086523;28;20044;-50
2022/03/27 01:10:25;;;;;;;12.63;7.40;;;;;;;17.56;100.00;103089.78;5072774;28;20108;-52
2022/03/27 01:12:51;;;;;;;10.75;6.28;;;;;;;17.60;100.00;103086.53;5075312;28;20037;-50
2022/03/27 01:15:35;;;;;;;;;;;;;;;17.57;100.00;103084.19;5072814;28;20059;-49
2022/03/27 01:18:01;;;;;;;10.23;6.45;;;;;;;17.46;100.00;103081.94;5075117;28;19973;-53
2022/03/27 01:20:32;;;;;;;11.87;6.37;;;;;;;17.50;100.00;103083.25;5075269;28;20037;-51
2022/03/27 01:22:58;;;;;;;8.60;5.93;;;;;;;17.65;100.00;103085.13;5072604;28;20047;-50
2022/03/27 01:25:24;;;;;;;;;;;;;;;17.52;100.00;103089.31;5079645;28;20033;-52
2022/03/27 01:27:50;;;;;;;10.60;7.03;;;;;;;17.01;100.00;103082.75;5081608;28;19978;-51
2022/03/27 01:30:16;;;;;;;14.75;7.25;;;;;;;17.01;100.00;103076.53;5082041;28;20032;-51
2022/03/27 01:32:41;;;;;;;14.18;8.18;;;;;;;17.01;100.00;103071.94;5078021;28;20044;-50
2022/03/27 01:35:07;;;;;;;11.53;6.87;;;;;;;17.08;100.00;103077.47;5079021;28;20032;-52
2022/03/27 01:37:33;;;;;;;14.32;7.75;;;;;;;17.22;100.00;103077.69;5078982;28;20036;-50
2022/03/27 01:39:58;;;;;;;11.60;6.10;;;;;;;17.25;100.00;103082.72;5081326;28;20043;-50
2022/03/27 01:42:23;;;;;;;13.47;7.33;;;;;;;17.20;100.00;103083.25;5076365;28;20048;-48
2022/03/27 01:44:49;;;;;;;11.57;6.45;;;;;;;17.32;100.00;103083.63;5078485;28;20106;-51
2022/03/27 01:47:14;;;;;;;12.63;7.47;;;;;;;17.34;100.00;103082.44;5078039;28;20037;-48
2022/03/27 01:49:41;;;;;;;11.93;6.83;;;;;;;17.14;100.00;103081.28;5079129;28;20106;-50
2022/03/27 01:52:06;;;;;;;10.65;6.72;;;;;;;17.36;100.00;103073.28;5078784;28;20088;-50
2022/03/27 01:54:32;;;;;;;14.77;6.20;;;;;;;17.43;100.00;103076.91;5078206;28;20036;-48
2022/03/27 01:56:58;;;;;;;14.32;7.25;;;;;;;17.34;100.00;103070.75;5078243;28;20067;-49
2022/03/27 01:59:24;;;;;;;15.70;7.85;;;;;;;17.13;100.00;103079.63;5078341;28;20049;-53
2022/03/27 02:01:49;;;;;;;13.23;7.25;;;;;;;17.27;100.00;103076.06;5080157;28;20061;-48
2022/03/27 02:04:15;;;;;;;14.63;8.00;;;;;;;17.24;100.00;103076.44;5078313;28;20096;-48
2022/03/27 02:06:43;;;;;;;17.15;8.00;;;;;;;17.04;100.00;103071.56;5078095;28;20105;-50
2022/03/27 02:09:10;;;;;;;13.05;7.68;;;;;;;17.20;100.00;103072.44;5078036;28;20101;-50
2022/03/27 02:11:36;;;;;;;18.20;9.30;;;;;;;17.29;100.00;103074.00;5078308;28;20037;-53
2022/03/27 02:14:02;;;;;;;16.77;8.80;;;;;;;17.26;100.00;103070.88;5080400;28;20052;-51
2022/03/27 02:16:28;;;;;;;12.48;7.13;;;;;;;17.10;100.00;103074.59;5078218;28;20060;-52
2022/03/27 02:18:53;;;;;;;12.90;7.63;;;;;;;16.89;100.00;103074.22;5077961;28;20039;-52
2022/03/27 02:21:19;;;;;;;13.65;7.45;;;;;;;17.16;100.00;103074.66;5078004;28;20538;-54
2022/03/27 02:23:44;;;;;;;17.03;8.10;;;;;;;17.29;100.00;103071.31;5078698;28;20059;-52
2022/03/27 02:26:10;;;;;;;16.90;8.60;;;;;;;17.57;100.00;103081.50;5078526;28;20092;-48
2022/03/27 02:28:35;;;;;;;15.93;8.23;;;;;;;17.42;100.00;103073.41;5084287;28;20300;-52
2022/03/27 02:31:01;;;;;;;15.53;9.20;;;;;;;17.36;100.00;103081.41;5084373;28;20033;-54
2022/03/27 02:33:27;;;;;;;17.27;8.60;;;;;;;17.39;100.00;103084.56;5090537;28;20047;-49
2022/03/27 02:35:53;;;;;;;14.07;8.60;;;;;;;17.51;100.00;103084.09;5078942;28;20041;-53
2022/03/27 02:38:19;;;;;;;14.47;7.90;;;;;;;17.38;100.00;103074.75;5090559;28;20266;-52
2022/03/27 02:40:45;;;;;;;16.83;8.98;;;;;;;17.67;99.80;103080.34;5085780;28;20028;-51
2022/03/27 02:43:11;;;;;;;27.17;11.73;;;;;;;17.44;100.00;103074.03;5082926;28;20044;-52
2022/03/27 02:45:37;;;;;;;16.58;8.57;;;;;;;17.62;100.00;103073.66;5092574;28;20115;-52
2022/03/27 02:48:02;;;;;;;20.80;8.88;;;;;;;17.54;100.00;103081.88;5079626;28;20047;-55
2022/03/27 02:50:32;;;;;;;19.75;9.45;;;;;;;17.38;100.00;103074.75;5088604;28;20040;-52
2022/03/27 02:52:59;;;;;;;22.45;10.27;;;;;;;17.39;100.00;103079.16;5086929;28;20033;-50
2022/03/27 02:55:25;;;;;;;16.40;8.80;;;;;;;17.68;98.99;103082.88;5080790;28;20043;-52
2022/03/27 02:57:52;;;;;;;14.95;9.27;;;;;;;17.61;98.70;103071.97;5091690;28;20052;-53
2022/03/27 03:00:19;;;;;;;16.27;8.77;;;;;;;17.53;99.40;103069.38;5081066;28;20056;-49
2022/03/27 03:02:45;;;;;;;13.35;7.68;;;;;;;17.43;99.42;103069.66;5085816;28;20051;-51
2022/03/27 03:05:12;;;;;;;15.63;7.88;;;;;;;17.45;98.06;103069.47;5088460;28;20036;-54
2022/03/27 03:07:41;;;;;;;15.57;8.45;;;;;;;17.45;97.28;103073.00;5078884;28;20109;-50
2022/03/27 03:10:08;;;;;;;16.35;8.48;;;;;;;17.52;95.77;103067.66;5095758;28;20033;-51
2022/03/27 03:12:34;;;;;;;14.32;8.20;;;;;;;17.43;96.67;103068.81;5088043;28;20064;-51
2022/03/27 03:15:00;;;;;;;17.23;9.00;;;;;;;17.16;98.96;103069.25;5087076;28;20036;-49
2022/03/27 03:17:25;;;;;;;23.47;9.63;;;;;;;17.10;100.00;103069.19;5080604;28;20300;-51
2022/03/27 03:19:52;;;;;;;22.48;10.68;;;;;;;16.99;100.00;103073.19;5092047;28;20041;-49
2022/03/27 03:22:18;;;;;;;17.10;9.55;;;;;;;17.08;99.42;103071.22;5081137;28;20047;-50
2022/03/27 03:24:43;;;;;;;13.55;7.28;;;;;;;16.76;100.00;103072.16;5086475;28;20040;-53
2022/03/27 03:27:09;;;;;;;16.48;9.23;;;;;;;16.90;100.00;103077.78;5088011;28;20036;-49
2022/03/27 03:29:35;;;;;;;16.70;8.23;;;;;;;17.06;96.39;103074.94;5079085;28;20040;-50
2022/03/27 03:32:01;;;;;;;14.00;8.55;;;;;;;17.03;96.62;103069.06;5091942;28;20071;-53
2022/03/27 03:34:26;;;;;;;14.10;8.63;;;;;;;17.00;95.89;103075.69;5082045;28;20040;-48
2022/03/27 03:36:52;;;;;;;18.00;9.47;;;;;;;16.82;98.26;103083.25;5084974;28;20044;-47
2022/03/27 03:39:18;;;;;;;16.37;8.53;;;;;;;16.86;98.10;103077.28;5088884;28;20276;-50
2022/03/27 03:41:43;;;;;;;28.23;13.82;;;;;;;16.85;95.97;103072.09;5078402;28;20043;-48
2022/03/27 03:44:09;;;;;;;170.10;68.70;;;;;;;16.82;94.63;103073.28;5073648;28;20067;-47
2022/03/27 03:46:34;;;;;;;15.93;9.23;;;;;;;16.92;93.43;103073.84;5087592;28;20274;-48
2022/03/27 03:49:00;;;;;;;16.90;10.17;;;;;;;16.80;94.07;103071.78;5074928;28;20052;-48
2022/03/27 03:51:25;;;;;;;16.02;9.10;;;;;;;16.42;98.60;103072.59;5090002;28;20036;-52
2022/03/27 03:53:51;;;;;;;16.52;8.63;;;;;;;16.64;96.90;103070.91;5078411;28;20037;-51
2022/03/27 03:56:17;;;;;;;18.43;9.90;;;;;;;16.72;96.01;103067.28;5089635;28;20052;-51
2022/03/27 03:58:42;;;;;;;16.15;9.40;;;;;;;16.67;94.82;103065.16;5083390;28;20067;-50
2022/03/27 04:01:08;;;;;;;16.70;8.70;;;;;;;16.65;97.04;103060.94;5082471;28;20100;-51
2022/03/27 04:03:33;;;;;;;16.90;9.30;;;;;;;16.80;94.34;103063.66;5090932;28;20032;-48
2022/03/27 04:05:59;;;;;;;16.97;9.10;;;;;;;16.66;95.46;103063.47;5078049;28;20288;-50
2022/03/27 04:08:25;;;;;;;20.45;10.35;;;;;;;16.49;97.77;103062.75;5088353;28;20037;-53
2022/03/27 04:10:50;;;;;;;17.47;10.37;;;;;;;16.73;94.85;103060.88;5084555;28;20061;-49
2022/03/27 04:13:15;;;;;;;19.75;10.05;;;;;;;16.46;98.36;103063.09;5081421;28;20037;-54
2022/03/27 04:15:41;;;;;;;18.80;11.00;;;;;;;16.73;95.92;103060.88;5084680;28;20045;-49
2022/03/27 04:18:07;;;;;;;17.33;9.70;;;;;;;16.85;93.53;103067.50;5090983;28;20270;-51
2022/03/27 04:20:34;;;;;;;20.27;10.98;;;;;;;16.90;92.76;103065.09;5064457;28;20116;-50
2022/03/27 04:23:01;;;;;;;20.67;10.07;;;;;;;17.01;91.76;103069.25;5083336;28;20033;-54
2022/03/27 04:25:27;;;;;;;18.65;10.32;;;;;;;16.76;93.65;103079.44;5089420;28;20040;-50
2022/03/27 04:27:52;;;;;;;23.13;10.80;;;;;;;16.81;92.89;103074.31;5077749;28;20109;-48
2022/03/27 04:30:17;;;;;;;19.27;10.33;;;;;;;16.83;92.91;103068.69;5089308;28;20039;-51
2022/03/27 04:32:43;;;;;;;18.53;10.63;;;;;;;16.71;95.35;103077.25;5083114;28;20048;-48
2022/03/27 04:35:09;;;;;;;18.65;10.65;;;;;;;16.81;93.67;103077.00;5082101;28;20033;-50
2022/03/27 04:37:43;;;;;;;20.40;11.07;;;;;;;16.96;91.34;103074.34;5089785;28;20111;-50
2022/03/27 04:40:13;;;;;;;19.38;10.30;;;;;;;16.97;91.46;103076.00;5062293;28;20064;-52
2022/03/27 04:42:39;;;;;;;17.02;9.95;;;;;;;16.89;91.93;103076.09;5086347;28;20071;-54
2022/03/27 04:45:05;;;;;;;19.95;10.85;;;;;;;17.02;89.82;103078.22;5085850;28;20044;-50
2022/03/27 04:47:30;;;;;;;18.70;10.95;;;;;;;16.94;90.32;103081.78;5078309;28;20037;-50
2022/03/27 04:49:55;;;;;;;19.80;11.03;;;;;;;16.96;89.75;103084.31;5090657;28;20021;-52
2022/03/27 04:52:21;;;;;;;22.87;11.10;;;;;;;16.78;91.97;103072.81;5079832;28;20058;-50
2022/03/27 04:54:46;;;;;;;16.60;10.17;;;;;;;16.81;91.30;103079.72;5084387;28;20341;-51
2022/03/27 04:57:12;;;;;;;20.90;10.55;;;;;;;16.85;90.69;103078.31;5083192;28;20043;-51
2022/03/27 04:59:38;;;;;;;17.60;10.07;;;;;;;16.72;91.77;103078.09;5098029;28;20040;-51
2022/03/27 05:02:05;;;;;;;20.83;10.85;;;;;;;16.77;90.51;103081.94;5081644;28;20088;-49
2022/03/27 05:04:30;;;;;;;15.98;9.00;;;;;;;16.89;88.60;103087.72;5091400;28;20069;-50
2022/03/27 05:06:56;;;;;;;15.55;9.00;;;;;;;16.70;90.41;103081.00;5087939;28;20415;-52
2022/03/27 05:09:22;;;;;;;17.83;9.60;;;;;;;16.70;89.38;103091.78;5084364;28;20037;-53
2022/03/27 05:11:48;;;;;;;17.02;9.43;;;;;;;16.51;90.14;103081.47;5094645;28;20047;-50
2022/03/27 05:14:14;;;;;;;16.33;9.10;;;;;;;16.37;91.08;103078.53;5081704;28;20028;-51
2022/03/27 05:16:40;;;;;;;15.45;8.88;;;;;;;16.38;90.31;103080.22;5090044;28;20037;-51
2022/03/27 05:19:06;;;;;;;15.75;8.98;;;;;;;16.29;92.79;103081.28;5089597;28;20041;-49
2022/03/27 05:21:32;;;;;;;18.17;9.20;;;;;;;16.39;90.31;103079.22;5082707;28;20041;-51
2022/03/27 05:23:58;;;;;;;17.25;9.35;;;;;;;16.26;91.27;103085.22;5094348;28;20063;-49
2022/03/27 05:26:25;;;;;;;17.50;9.32;;;;;;;16.11;92.99;103082.41;5083572;28;20036;-52
2022/03/27 05:28:51;;;;;;;16.73;9.38;;;;;;;16.27;91.69;103081.50;5088417;28;20033;-52
2022/03/27 05:31:17;;;;;;;13.40;7.78;;;;;;;16.36;89.77;103079.53;5090725;28;20036;-50
2022/03/27 05:33:43;;;;;;;16.35;9.05;;;;;;;16.34;88.27;103081.59;5081237;28;20060;-48
2022/03/27 05:36:10;;;;;;;15.18;8.68;;;;;;;16.25;89.13;103088.91;5064863;28;20032;-49
2022/03/27 05:38:40;;;;;;;14.75;8.15;;;;;;;15.97;91.58;103084.00;5090608;28;20037;-50
2022/03/27 05:41:09;;;;;;;14.48;7.97;;;;;;;15.90;92.54;103083.03;5088367;28;20047;-48
2022/03/27 05:43:36;;;;;;;15.70;8.85;;;;;;;15.87;93.63;103083.34;5082066;28;20063;-48
2022/03/27 05:46:02;;;;;;;14.68;8.75;;;;;;;16.14;90.54;103092.84;5093323;28;20044;-49
2022/03/27 05:48:28;;;;;;;15.48;8.27;;;;;;;16.10;91.84;103083.41;5083635;28;20040;-51
2022/03/27 05:50:54;;;;;;;12.37;7.67;;;;;;;16.15;89.83;103083.75;5087699;28;20057;-51
2022/03/27 05:53:21;;;;;;;18.00;9.05;;;;;;;15.97;90.63;103085.88;5090529;28;20082;-47
2022/03/27 05:55:47;;;;;;;;;;;;;;;16.17;88.07;103081.72;5081280;28;20037;-48
2022/03/27 05:58:13;;;;;;;15.95;8.27;;;;;;;16.19;88.19;103086.91;5093181;28;19916;-47
2022/03/27 06:00:40;;;;;;;17.55;9.75;;;;;;;15.93;90.54;103085.38;5084929;28;20066;-50
2022/03/27 06:03:05;;;;;;;14.60;8.10;;;;;;;16.26;87.09;103090.59;5085881;28;20059;-52
2022/03/27 06:05:31;;;;;;;15.17;8.17;;;;;;;16.19;86.76;103092.31;5077132;28;20036;-49
2022/03/27 06:07:58;;;;;;;13.20;7.63;;;;;;;16.33;84.79;103101.50;5093247;28;20265;-52
2022/03/27 06:10:32;;;;;;;17.67;9.35;;;;;;;16.37;84.14;103093.91;5082492;28;20036;-51
2022/03/27 06:12:59;;;;;;;16.98;9.90;;;;;;;16.44;82.82;103098.41;5086529;28;20043;-49
2022/03/27 06:15:27;;;;;;;15.13;8.82;;;;;;;16.18;84.77;103109.53;5090834;28;20032;-50
2022/03/27 06:17:54;;;;;;;16.45;8.25;;;;;;;15.93;84.39;103098.03;5079278;28;20032;-52
2022/03/27 06:20:25;;;;;;;16.35;8.70;;;;;;;16.05;84.10;103110.09;5096978;28;20028;-50
2022/03/27 06:22:51;;;;;;;16.23;8.90;;;;;;;16.10;83.68;103115.81;5087622;28;20071;-53
2022/03/27 06:25:19;;;;;;;16.38;9.13;;;;;;;16.18;81.91;103126.59;5089619;28;20135;-49
2022/03/27 06:27:45;;;;;;;16.63;9.15;;;;;;;16.02;82.66;103119.38;5080026;28;20033;-49
2022/03/27 06:30:13;;;;;;;17.67;9.77;;;;;;;16.10;82.78;103123.09;5093331;28;20059;-50
2022/03/27 06:32:39;;;;;;;24.45;10.50;;;;;;;16.03;83.09;103122.94;5083880;28;20333;-50
2022/03/27 06:35:05;;;;;;;20.67;10.43;;;;;;;16.37;80.50;103123.59;5085532;28;20059;-48
2022/03/27 06:37:31;;;;;;;;;;;;;;;15.90;79.46;103129.72;5091669;28;20032;-49
2022/03/27 06:39:58;;;;;;;23.85;10.45;;;;;;;15.83;79.20;103127.91;5079518;28;19917;-49
2022/03/27 06:42:25;;;;;;;22.73;10.02;;;;;;;16.00;77.29;103131.41;5091006;28;20040;-52
2022/03/27 06:44:52;;;;;;;24.33;11.90;;;;;;;15.84;77.86;103121.50;5084538;28;20095;-53
2022/03/27 06:47:19;;;;;;;25.38;11.10;;;;;;;15.88;77.65;103117.41;5083593;28;20041;-52
2022/03/27 06:49:46;;;;;;;25.17;12.05;;;;;;;15.93;76.65;103122.34;5092795;28;20043;-49
2022/03/27 06:52:12;;;;;;;25.00;11.25;;;;;;;16.11;75.48;103119.38;5063319;28;20037;-49
2022/03/27 06:54:38;;;;;;;27.30;11.57;;;;;;;15.94;75.21;103118.63;5088107;28;20124;-49
2022/03/27 06:57:04;;;;;;;27.98;12.18;;;;;;;15.81;76.08;103129.94;5086587;28;20052;-52
2022/03/27 07:03:01;;;;;;;22.90;10.67;;;;;;;15.89;75.03;103122.66;5081706;28;20063;-51
2022/03/27 07:05:05;;;;;;;25.27;11.77;;;;;;;15.77;75.96;103124.03;5085253;28;20044;-52
2022/03/27 07:07:31;;;;;;;31.83;13.27;;;;;;;15.81;74.69;103125.38;5090282;28;20118;-51
2022/03/27 07:09:57;;;;;;;28.98;13.32;;;;;;;15.65;75.53;103126.28;5078858;28;20036;-49
2022/03/27 07:12:24;;;;;;;26.83;12.05;;;;;;;15.49;77.37;103121.78;5090782;28;20099;-49
2022/03/27 07:14:54;;;;;;;26.90;11.55;;;;;;;15.82;75.43;103120.81;5084312;28;20040;-53
2022/03/27 07:17:19;;;;;;;30.67;13.00;;;;;;;15.86;73.78;103122.16;5082705;28;20104;-52
2022/03/27 07:19:45;;;;;;;33.00;12.37;;;;;;;15.94;73.79;103113.22;5090961;28;20051;-54
2022/03/27 07:22:11;;;;;;;24.52;11.85;;;;;;;15.97;73.13;103123.66;5078622;28;20281;-51
2022/03/27 07:24:37;;;;;;;31.83;12.57;;;;;;;15.96;72.86;103117.41;5088425;28;20108;-54
2022/03/27 07:27:02;;;;;;;28.75;13.02;;;;;;;16.00;72.98;103117.91;5085558;28;20277;-52
2022/03/27 07:29:30;;;;;;;30.10;13.48;;;;;;;15.99;73.42;103117.03;5081195;28;20245;-53
2022/03/27 07:31:56;;;;;;;29.17;13.90;;;;;;;15.85;74.87;103115.06;5091352;28;20036;-52
2022/03/27 07:34:22;;;;;;;27.52;11.93;;;;;;;15.89;74.71;103111.84;5079923;28;20051;-52
2022/03/27 07:36:48;;;;;;;29.13;11.67;;;;;;;16.13;72.19;103112.75;5086792;28;20203;-52
2022/03/27 07:39:13;;;;;;;28.70;13.15;;;;;;;16.17;70.78;103114.09;5086462;28;20040;-50
2022/03/27 07:41:39;;;;;;;27.27;12.40;;;;;;;16.13;71.62;103112.75;5079496;28;20028;-47
2022/03/27 07:44:05;;;;;;;30.27;13.67;;;;;;;16.22;70.69;103115.44;5091148;28;20308;-55
2022/03/27 07:46:32;;;;;;;28.08;14.07;;;;;;;16.34;70.63;103114.00;5080937;28;20044;-49
2022/03/27 07:48:57;;;;;;;27.25;12.30;;;;;;;16.61;69.55;103122.59;5084912;28;20045;-49
2022/03/27 07:51:23;;;;;;;30.60;13.07;;;;;;;16.42;69.75;103124.75;5087770;28;20062;-52
2022/03/27 07:53:49;;;;;;;29.70;13.20;;;;;;;16.47;69.10;103129.59;5077874;28;20100;-51
2022/03/27 07:56:15;;;;;;;29.98;13.05;;;;;;;16.68;67.64;103126.25;5090795;28;20040;-49
2022/03/27 07:58:40;;;;;;;22.10;10.37;;;;;;;16.57;66.11;103129.38;5081225;28;20056;-50
2022/03/27 08:01:06;;;;;;;32.85;13.13;;;;;;;16.76;66.38;103134.28;5083525;28;20111;-47
2022/03/27 08:03:33;;;;;;;27.98;13.05;;;;;;;16.58;67.08;103126.50;5088825;28;20047;-47
2022/03/27 08:06:00;;;;;;;24.50;11.68;;;;;;;16.71;65.67;103131.31;5077677;28;20048;-50
2022/03/27 08:08:26;;;;;;;30.08;13.70;;;;;;;16.60;66.31;103120.91;5089052;28;20029;-46
2022/03/27 08:10:52;;;;;;;26.73;11.82;;;;;;;16.62;66.26;103121.59;5082766;28;20054;-49
2022/03/27 08:13:17;;;;;;;24.67;12.50;;;;;;;16.72;64.72;103122.16;5082089;28;20100;-49
2022/03/27 08:15:43;;;;;;;30.27;13.25;;;;;;;16.91;62.58;103130.81;5090050;28;20040;-53
2022/03/27 08:18:13;;;;;;;24.67;11.70;;;;;;;17.00;61.60;103129.72;5077323;28;20067;-52
2022/03/27 08:20:40;;;;;;;25.90;12.40;;;;;;;16.94;61.94;103135.84;5087496;28;20052;-49
2022/03/27 08:23:07;;;;;;;29.85;11.77;;;;;;;16.95;60.85;103129.41;5084823;28;20047;-48
2022/03/27 08:28:19;;;;;;;26.20;11.82;;;;;;;17.17;58.61;103130.41;5061594;28;20059;-49
2022/03/27 08:30:45;;;;;;;27.90;13.18;;;;;;;17.34;57.62;103132.97;5085692;28;20063;-53
2022/03/27 08:33:11;;;;;;;26.88;12.88;;;;;;;17.42;58.19;103132.91;5084582;28;20042;-51
2022/03/27 08:35:41;;;;;;;26.17;12.10;;;;;;;17.38;58.26;103130.75;5079159;28;20040;-49
2022/03/27 08:38:07;;;;;;;25.80;13.07;;;;;;;17.60;56.65;103124.41;5081305;28;20403;-53
2022/03/27 08:40:34;;;;;;;31.95;12.35;;;;;;;17.78;55.52;103137.53;5072760;28;20411;-51
2022/03/27 08:43:01;;;;;;;25.10;10.85;;;;;;;17.77;55.05;103138.56;5072746;28;20021;-49
2022/03/27 08:45:27;;;;;;;;;;;;;;;17.95;53.59;103134.63;5073355;28;20041;-47
2022/03/27 08:47:52;;;;;;;25.30;12.15;;;;;;;18.47;51.49;103135.47;5072756;28;20570;-55
2022/03/27 08:50:38;;;;;;;28.93;12.50;;;;;;;18.12;51.66;103131.75;5072837;28;20029;-52
2022/03/27 08:53:06;;;;;;;26.95;11.00;;;;;;;18.04;51.46;103124.56;5070923;28;20033;-54
2022/03/27 08:55:50;;;;;;;29.63;12.30;;;;;;;18.29;50.33;103126.94;5072787;28;20033;-52
2022/03/27 08:58:18;;;;;;;25.33;11.70;;;;;;;18.60;50.18;103125.78;5071397;28;20328;-50
2022/03/27 09:00:44;;;;;;;27.77;12.80;;;;;;;19.16;49.06;103126.94;5071644;28;20333;-50
2022/03/27 09:03:10;;;;;;;38.00;16.92;;;;;;;19.46;48.69;103126.69;5071992;28;20296;-53
2022/03/27 09:05:37;;;;;;;31.95;12.82;;;;;;;20.07;47.14;103114.28;5072524;28;20029;-49
2022/03/27 09:08:07;;;;;;;23.33;11.90;;;;;;;20.60;45.34;103126.28;5071888;28;20409;-55
2022/03/27 09:10:33;;;;;;;27.57;12.70;;;;;;;21.30;43.16;103130.47;5071460;28;20266;-50
2022/03/27 09:13:00;;;;;;;24.10;12.70;;;;;;;21.95;42.07;103135.09;5072675;28;20269;-50
2022/03/27 09:15:26;;;;;;;25.00;12.53;;;;;;;22.47;40.70;103126.88;5072407;28;20044;-50
2022/03/27 09:17:59;;;;;;;26.90;12.50;;;;;;;23.17;38.81;103126.94;5071462;28;20270;-52
2022/03/27 09:20:42;;;;;;;22.50;11.30;;;;;;;23.65;37.87;103130.00;5073268;28;20036;-48
2022/03/27 09:23:21;;;;;;;27.13;13.23;;;;;;;24.16;36.92;103130.63;5074231;28;20043;-49
2022/03/27 09:26:01;;;;;;;23.63;12.77;;;;;;;24.59;35.95;103126.00;5076589;28;20037;-48
2022/03/27 09:28:40;;;;;;;22.70;12.30;;;;;;;25.18;34.80;103127.97;5072883;28;20037;-53
2022/03/27 09:31:16;;;;;;;23.40;12.13;;;;;;;25.57;33.67;103120.03;5083661;28;20029;-50
2022/03/27 09:33:48;;;;;;;26.52;12.32;;;;;;;25.94;32.83;103127.06;5078614;28;20045;-55
2022/03/27 09:36:15;;;;;;;28.03;12.60;;;;;;;26.30;32.68;103127.75;5090014;28;20033;-54
2022/03/27 09:38:55;;;;;;;22.07;12.37;;;;;;;27.13;31.27;103129.09;5080091;28;20044;-50
2022/03/27 09:41:37;;;;;;;27.17;12.50;;;;;;;27.52;30.70;103121.91;5081288;28;20037;-52
2022/03/27 09:44:07;;;;;;;20.13;11.50;;;;;;;28.18;28.90;103126.50;5088185;28;20063;-51
2022/03/27 09:46:48;;;;;;;22.47;11.97;;;;;;;28.57;28.73;103134.56;5082583;28;20029;-52
2022/03/27 09:49:22;;;;;;;34.37;14.73;;;;;;;28.93;28.21;103124.91;5084824;28;20044;-51
2022/03/27 09:51:56;;;;;;;22.20;12.07;;;;;;;29.31;26.95;103122.91;5092677;28;20037;-51
2022/03/27 09:54:23;;;;;;;29.77;13.60;;;;;;;29.84;26.99;103122.84;5065345;28;20123;-48
2022/03/27 09:56:50;;;;;;;27.77;14.07;;;;;;;30.07;26.03;103120.72;5088963;28;20060;-56
2022/03/27 09:59:34;;;;;;;31.00;15.50;;;;;;;30.28;25.42;103127.06;5075865;28;20048;-52
2022/03/27 10:02:20;;;;;;;28.13;15.53;;;;;;;30.40;25.09;103124.03;5077147;28;20063;-53
2022/03/27 10:05:07;;;;;;;22.60;12.27;;;;;;;30.81;24.36;103114.06;5089113;28;20078;-52
2022/03/27 10:07:44;;;;;;;18.48;10.35;;;;;;;31.30;23.72;103116.16;5090650;28;20047;-52
2022/03/27 10:10:14;;;;;;;19.43;11.03;;;;;;;31.48;23.46;103119.41;5077416;28;20047;-51
2022/03/27 10:12:41;;;;;;;18.43;10.90;;;;;;;31.56;23.72;103113.25;5083077;28;20070;-47
2022/03/27 10:15:14;;;;;;;18.63;10.60;;;;;;;31.73;23.06;103112.91;5086216;28;20081;-50
2022/03/27 10:17:43;;;;;;;18.73;10.80;;;;;;;31.92;22.57;103115.00;5090670;28;20029;-53
2022/03/27 10:20:10;;;;;;;15.95;9.77;;;;;;;32.22;21.56;103117.84;5076285;28;20033;-49
2022/03/27 10:22:42;;;;;;;16.65;10.10;;;;;;;32.07;21.84;103114.09;5081564;28;20052;-47
2022/03/27 10:25:17;;;;;;;16.05;10.20;;;;;;;32.39;21.96;103111.91;5085212;28;20415;-51
2022/03/27 10:27:45;;;;;;;20.20;10.45;;;;;;;32.49;21.96;103108.22;5090376;28;20040;-51
2022/03/27 10:30:12;;;;;;;18.88;10.48;;;;;;;32.78;21.60;103110.16;5078474;28;20033;-56
2022/03/27 10:32:40;;;;;;;15.98;9.38;;;;;;;32.57;21.65;103111.16;5089514;28;20040;-55
2022/03/27 10:35:16;;;;;;;18.77;10.43;;;;;;;33.10;20.72;103111.47;5084170;28;20033;-54
2022/03/27 10:37:48;;;;;;;15.68;10.00;;;;;;;33.33;20.61;103109.78;5080288;28;20037;-53
2022/03/27 10:43:14;;;;;;;19.05;10.32;;;;;;;33.45;20.21;103109.41;5083864;23;20130;-51
2022/03/27 10:45:39;;;;;;;20.35;10.25;;;;;;;33.90;20.25;103101.47;5016515;28;20041;-50
2022/03/27 10:48:16;;;;;;;17.42;10.45;;;;;;;33.94;20.37;103103.69;5015319;28;20412;-51
2022/03/27 10:50:51;;;;;;;20.52;9.98;;;;;;;34.20;19.88;103100.50;5019684;28;20022;-49
2022/03/27 10:53:19;;;;;;;14.25;8.25;;;;;;;34.45;19.78;103097.25;5012528;28;20057;-51
2022/03/27 10:55:47;;;;;;;14.23;9.05;;;;;;;34.67;19.16;103093.00;5014093;28;20058;-52
2022/03/27 10:58:32;;;;;;;15.00;9.75;;;;;;;34.63;18.65;103097.53;5013096;28;20102;-51
2022/03/27 11:01:00;;;;;;;14.68;9.15;;;;;;;34.87;17.98;103091.75;5015927;28;20066;-49
2022/03/27 11:03:48;;;;;;;13.52;8.65;;;;;;;34.77;17.90;103093.91;5015675;28;20038;-50
2022/03/27 11:06:28;;;;;;;14.35;9.50;;;;;;;34.90;18.10;103090.31;5016134;28;20042;-49
2022/03/27 11:08:55;;;;;;;13.75;8.65;;;;;;;35.19;17.39;103089.19;5016192;28;20030;-51
2022/03/27 11:11:52;;;;;;;15.45;8.65;;;;;;;35.98;17.10;103077.91;5015162;28;20045;-48
2022/03/27 11:14:46;;;;;;;14.10;7.88;;;;;;;36.08;16.34;103082.41;5021711;28;20064;-54
2022/03/27 11:17:13;;;;;;;11.45;7.53;;;;;;;36.55;15.95;103084.81;5015839;28;20030;-48
2022/03/27 11:19:44;;;;;;;11.57;7.13;;;;;;;36.99;15.90;103080.22;5015475;28;20043;-47
2022/03/27 11:22:45;;;;;;;11.48;6.95;;;;;;;37.07;15.27;103086.16;5009308;28;20053;-47
2022/03/27 11:25:33;;;;;;;11.18;7.05;;;;;;;37.07;15.26;103077.78;5005240;28;20094;-54